Time;durP1;ratioP1;P1;durP2;ratioP2;P2;SDS_P1;SDS_P2;PMS_P1;PMS_P2;Temp;Humidity;BMP_temperature;BMP_pressure;BME280_temperature;BME280_humidity;BME280_pressure;Samples;Min_cycle;Max_cycle;Signal;HPM_P1;HPM_P2
2023/02/26 00:01:03;;;;;;;;;;;;;;;9.67;61.71;92325.38;5026296;28;20393;-53
2023/02/26 00:03:28;;;;;;;;;;;;;;;9.74;61.34;92317.03;5024773;28;19940;-53
2023/02/26 00:05:57;;;;;;;;;;;;;;;9.76;61.11;92313.72;5024807;28;19921;-52
2023/02/26 00:08:23;;;;;;;;;;;;;;;9.82;60.39;92303.16;5024569;28;19918;-50
2023/02/26 00:10:48;;;;;;;;;;;;;;;9.70;60.88;92302.22;5027118;28;20386;-52
2023/02/26 00:13:13;;;;;;;;;;;;;;;9.73;60.50;92298.31;5026037;28;19921;-54
2023/02/26 00:15:39;;;;;;;;;;;;;;;9.63;61.86;92297.53;5023979;28;19932;-54
2023/02/26 00:18:09;;;;;;;;;;;;;;;9.28;63.69;92305.09;5021543;28;20466;-54
2023/02/26 00:20:35;;;;;;;;;;;;;;;9.27;63.83;92300.88;5022422;28;19927;-54
2023/02/26 00:23:00;;;;;;;;;;;;;;;9.31;63.23;92295.72;5022299;28;19936;-52
2023/02/26 00:25:25;;;;;;;;;;;;;;;9.42;62.36;92288.97;5026072;28;20316;-51
2023/02/26 00:27:51;;;;;;;;;;;;;;;9.61;60.38;92276.06;5026377;28;20014;-52
2023/02/26 00:30:16;;;;;;;;;;;;;;;9.50;61.77;92273.81;5021937;28;20393;-52
2023/02/26 00:32:42;;;;;;;;;;;;;;;9.42;61.63;92292.44;5025883;28;20600;-51
2023/02/26 00:35:07;;;;;;;;;;;;;;;9.50;61.29;92286.84;5024052;28;19921;-52
2023/02/26 00:37:36;;;;;;;;;;;;;;;9.46;61.36;92272.75;5022280;28;19921;-51
2023/02/26 00:40:10;;;;;;;;;;;;;;;9.99;53.84;92274.78;5024133;28;19928;-52
2023/02/26 00:42:36;;;;;;;;;;;;;;;10.48;51.59;92266.19;5025498;28;19917;-50
2023/02/26 00:45:02;;;;;;;;;;;;;;;10.53;51.42;92265.88;5025088;28;20309;-52
2023/02/26 00:47:47;;;;;;;;;;;;;;;10.85;48.63;92253.75;5024894;28;19987;-51
2023/02/26 00:50:15;;;;;;;;;;;;;;;10.80;49.82;92238.19;5023717;28;20542;-49
2023/02/26 00:52:41;;;;;;;;;;;;;;;11.20;47.14;92248.69;5026195;28;20332;-51
2023/02/26 00:55:06;;;;;;;;;;;;;;;11.35;46.19;92256.66;5023012;28;19913;-51
2023/02/26 00:57:31;;;;;;;;;;;;;;;11.42;46.83;92239.94;5025345;28;20456;-51
2023/02/26 00:59:56;;;;;;;;;;;;;;;11.57;45.07;92247.19;5023743;28;19978;-50
2023/02/26 01:02:22;;;;;;;;;;;;;;;11.43;45.88;92237.94;5023178;28;19917;-50
2023/02/26 01:04:47;;;;;;;;;;;;;;;11.32;46.31;92244.78;5024039;28;19913;-52
2023/02/26 01:07:13;;;;;;;;;;;;;;;11.54;44.77;92229.03;5021859;28;19975;-52
2023/02/26 01:09:38;;;;;;;;;;;;;;;11.53;44.60;92230.34;5023672;28;20377;-50
2023/02/26 01:12:06;;;;;;;;;;;;;;;11.72;43.88;92233.09;5027328;28;19921;-52
2023/02/26 01:14:31;;;;;;;;;;;;;;;11.87;42.89;92230.00;5030110;28;20532;-51
2023/02/26 01:16:56;;;;;;;;;;;;;;;12.09;41.71;92230.78;5022194;28;19991;-50
2023/02/26 01:19:24;;;;;;;;;;;;;;;12.14;41.25;92236.03;5029161;28;19939;-53
2023/02/26 01:21:51;;;;;;;;;;;;;;;12.31;40.38;92228.81;5027144;28;19924;-52
2023/02/26 01:24:16;;;;;;;;;;;;;;;12.43;40.25;92222.06;5026095;28;20381;-53
2023/02/26 01:26:42;;;;;;;;;;;;;;;12.51;39.54;92230.19;5026949;28;19917;-54
2023/02/26 01:29:07;;;;;;;;;;;;;;;12.42;39.69;92212.31;5029524;28;19929;-54
2023/02/26 01:31:48;;;;;;;;;;;;;;;12.60;38.98;92221.84;5025303;28;19993;-53
2023/02/26 01:34:32;;;;;;;;;;;;;;;12.55;39.35;92213.84;5022878;28;19968;-54
2023/02/26 01:37:11;;;;;;;;;;;;;;;12.43;39.95;92215.81;5023148;28;20008;-50
2023/02/26 01:39:43;;;;;;;;;;;;;;;12.57;38.96;92202.91;5023462;28;19917;-50
2023/02/26 01:42:21;;;;;;;;;;;;;;;12.61;38.51;92208.69;5023402;28;19921;-51
2023/02/26 01:44:59;;;;;;;;;;;;;;;12.49;38.77;92202.38;5020836;28;19921;-53
2023/02/26 01:47:34;;;;;;;;;;;;;;;12.43;39.21;92199.19;5025641;28;19921;-52
2023/02/26 01:50:06;;;;;;;;;;;;;;;12.28;39.92;92199.56;5029265;28;19921;-52
2023/02/26 01:52:31;;;;;;;;;;;;;;;12.28;39.74;92188.50;5029288;28;20035;-50
2023/02/26 01:54:56;;;;;;;;;;;;;;;12.30;39.30;92185.88;5029215;28;20012;-52
2023/02/26 01:57:21;;;;;;;;;;;;;;;12.22;39.95;92185.31;5026730;28;19933;-51
2023/02/26 01:59:47;;;;;;;;;;;;;;;12.22;39.69;92186.03;5027121;28;19969;-52
2023/02/26 02:02:15;;;;;;;;;;;;;;;12.19;40.16;92187.22;5025113;28;19979;-51
2023/02/26 02:04:41;;;;;;;;;;;;;;;12.39;39.27;92185.09;5020616;28;19928;-52
2023/02/26 02:07:06;;;;;;;;;;;;;;;12.52;38.78;92184.56;5021970;28;19917;-50
2023/02/26 02:09:31;;;;;;;;;;;;;;;12.39;39.15;92187.88;5022986;28;19975;-53
2023/02/26 02:12:07;;;;;;;;;;;;;;;12.35;38.98;92188.31;5023033;28;19917;-51
2023/02/26 02:14:32;;;;;;;;;;;;;;;12.41;38.85;92188.69;5022635;28;19978;-51
2023/02/26 02:16:57;;;;;;;;;;;;;;;12.30;39.17;92196.94;5025787;28;20365;-51
2023/02/26 02:19:41;;;;;;;;;;;;;;;12.30;39.43;92194.16;5023646;28;19920;-53
2023/02/26 02:22:10;;;;;;;;;;;;;;;12.08;40.12;92196.16;5025030;28;20031;-51
2023/02/26 02:24:47;;;;;;;;;;;;;;;12.25;39.14;92207.00;5022876;28;19921;-50
2023/02/26 02:27:12;;;;;;;;;;;;;;;12.18;40.32;92205.88;5026389;28;20450;-50
2023/02/26 02:29:47;;;;;;;;;;;;;;;12.03;40.38;92206.22;5024175;28;20007;-52
2023/02/26 02:32:14;;;;;;;;;;;;;;;12.12;39.63;92213.75;5025605;28;19952;-52
2023/02/26 02:34:47;;;;;;;;;;;;;;;12.08;40.04;92212.75;5024933;28;19921;-52
2023/02/26 02:37:24;;;;;;;;;;;;;;;11.94;40.20;92226.34;5023218;28;19921;-53
2023/02/26 02:39:51;;;;;;;;;;;;;;;11.95;39.92;92224.31;5022744;28;19971;-53
2023/02/26 02:42:29;;;;;;;;;;;;;;;11.97;40.41;92218.91;5024250;28;19917;-54
2023/02/26 02:44:59;;;;;;;;;;;;;;;11.90;40.52;92219.81;5028482;28;19913;-52
2023/02/26 02:47:24;;;;;;;;;;;;;;;11.95;40.14;92230.53;5023372;28;19929;-52
2023/02/26 02:50:08;;;;;;;;;;;;;;;11.99;44.49;92239.16;5023830;28;20347;-49
2023/02/26 02:52:38;;;;;;;;;;;;;;;11.49;47.78;92226.56;5023006;28;19924;-53
2023/02/26 02:55:05;;;;;;;;;;;;;;;11.28;49.49;92232.69;5022031;28;19921;-53
2023/02/26 02:57:35;;;;;;;;;;;;;;;11.06;50.53;92231.84;5019066;28;19928;-53
2023/02/26 03:00:03;;;;;;;;;;;;;;;11.07;51.14;92244.31;5021116;28;19965;-54
2023/02/26 03:02:32;;;;;;;;;;;;;;;10.88;51.85;92247.06;5027099;28;19951;-53
2023/02/26 03:04:57;;;;;;;;;;;;;;;10.79;52.68;92249.81;5020300;28;19925;-53
2023/02/26 03:07:23;;;;;;;;;;;;;;;10.29;54.42;92255.06;5019058;28;19980;-53
2023/02/26 03:09:48;;;;;;;;;;;;;;;10.24;54.40;92256.81;5020857;28;19917;-54
2023/02/26 03:12:13;;;;;;;;;;;;;;;10.45;54.55;92259.03;5020775;28;19921;-53
2023/02/26 03:14:39;;;;;;;;;;;;;;;10.21;55.33;92263.47;5024846;28;19986;-53
2023/02/26 03:17:08;;;;;;;;;;;;;;;10.01;56.38;92253.63;5022350;28;19925;-52
2023/02/26 03:19:33;;;;;;;;;;;;;;;10.28;55.90;92242.59;5024377;28;19920;-53
2023/02/26 03:21:58;;;;;;;;;;;;;;;10.18;56.30;92250.09;5025057;28;19917;-53
2023/02/26 03:24:23;;;;;;;;;;;;;;;10.10;56.43;92260.47;5021994;28;19923;-51
2023/02/26 03:26:53;;;;;;;;;;;;;;;10.24;56.11;92256.81;5026276;28;20318;-53
2023/02/26 03:29:24;;;;;;;;;;;;;;;9.94;56.45;92249.66;5016713;28;20713;-50
2023/02/26 03:31:59;;;;;;;;;;;;;;;9.89;56.58;92252.69;5022860;28;19917;-49
2023/02/26 03:34:26;;;;;;;;;;;;;;;9.78;57.18;92256.72;5026213;28;19921;-50
2023/02/26 03:37:02;;;;;;;;;;;;;;;9.56;58.06;92263.25;5019499;28;19917;-50
2023/02/26 03:39:29;;;;;;;;;;;;;;;9.72;57.64;92256.22;5026400;28;19929;-49
2023/02/26 03:42:05;;;;;;;;;;;;;;;10.00;56.44;92245.94;5025941;28;20007;-50
2023/02/26 03:44:33;;;;;;;;;;;;;;;10.06;56.34;92251.91;5024532;28;19980;-49
2023/02/26 03:46:59;;;;;;;;;;;;;;;9.96;56.49;92249.13;5025176;28;19921;-51
2023/02/26 03:49:26;;;;;;;;;;;;;;;9.92;56.34;92240.50;5024294;28;20305;-49
2023/02/26 03:51:51;;;;;;;;;;;;;;;9.65;57.38;92240.53;5024807;28;19921;-49
2023/02/26 03:54:21;;;;;;;;;;;;;;;9.62;57.79;92229.91;5023642;28;19928;-49
2023/02/26 03:56:47;;;;;;;;;;;;;;;9.52;58.31;92229.88;5025743;28;19921;-50
2023/02/26 03:59:12;;;;;;;;;;;;;;;9.48;57.98;92223.31;5025812;28;20423;-52
2023/02/26 04:01:52;;;;;;;;;;;;;;;9.40;58.40;92226.16;5025541;28;19925;-51
2023/02/26 04:04:20;;;;;;;;;;;;;;;9.25;59.49;92226.34;5026379;28;19917;-50
2023/02/26 04:06:46;;;;;;;;;;;;;;;9.23;59.89;92217.94;5021974;28;19924;-51
2023/02/26 04:09:11;;;;;;;;;;;;;;;9.21;59.77;92220.53;5027497;28;19921;-53
2023/02/26 04:11:36;;;;;;;;;;;;;;;9.10;60.32;92240.31;5027360;28;19919;-52
2023/02/26 04:14:01;;;;;;;;;;;;;;;9.28;59.30;92236.25;5025140;28;19921;-51
2023/02/26 04:16:27;;;;;;;;;;;;;;;9.32;58.26;92235.81;5024320;28;20357;-51
2023/02/26 04:18:52;;;;;;;;;;;;;;;9.29;59.01;92225.97;5024719;28;19921;-51
2023/02/26 04:21:18;;;;;;;;;;;;;;;9.28;59.14;92225.22;5020650;28;20436;-52
2023/02/26 04:23:43;;;;;;;;;;;;;;;9.37;58.62;92221.81;5024884;28;19921;-51
2023/02/26 04:26:08;;;;;;;;;;;;;;;9.39;58.23;92226.75;5022099;28;19924;-52
2023/02/26 04:28:36;;;;;;;;;;;;;;;9.66;56.82;92213.69;5022742;28;19932;-49
2023/02/26 04:31:02;;;;;;;;;;;;;;;9.66;56.65;92208.19;5025632;28;19921;-49
2023/02/26 04:33:27;;;;;;;;;;;;;;;9.49;57.42;92205.47;5024912;28;19929;-52
2023/02/26 04:35:52;;;;;;;;;;;;;;;9.46;58.18;92212.16;5025624;28;19925;-50
2023/02/26 04:38:18;;;;;;;;;;;;;;;9.51;57.06;92203.59;5026497;28;19921;-50
2023/02/26 04:40:43;;;;;;;;;;;;;;;9.55;57.70;92211.47;5026033;28;19988;-51
2023/02/26 04:43:08;;;;;;;;;;;;;;;9.51;57.41;92214.63;5025134;28;19978;-51
2023/02/26 04:45:34;;;;;;;;;;;;;;;9.49;57.76;92202.72;5025187;28;19920;-49
2023/02/26 04:47:59;;;;;;;;;;;;;;;9.50;57.53;92204.19;5022346;28;20325;-50
2023/02/26 04:50:24;;;;;;;;;;;;;;;9.66;56.16;92206.16;5024154;28;19920;-49
2023/02/26 04:52:50;;;;;;;;;;;;;;;9.70;56.30;92195.44;5023941;28;20308;-51
2023/02/26 04:55:15;;;;;;;;;;;;;;;9.77;56.08;92189.09;5022544;28;19952;-51
2023/02/26 04:57:40;;;;;;;;;;;;;;;9.66;56.35;92192.38;5024899;28;19947;-49
2023/02/26 05:00:09;;;;;;;;;;;;;;;9.65;56.47;92192.97;5022963;28;19944;-50
2023/02/26 05:02:34;;;;;;;;;;;;;;;9.74;55.71;92184.75;5026043;28;20518;-50
2023/02/26 05:04:59;;;;;;;;;;;;;;;9.77;56.12;92191.13;5025584;28;19940;-50
2023/02/26 05:07:25;;;;;;;;;;;;;;;9.57;57.14;92195.09;5021399;28;19924;-50
2023/02/26 05:09:50;;;;;;;;;;;;;;;9.50;57.25;92188.41;5023124;28;19932;-49
2023/02/26 05:12:15;;;;;;;;;;;;;;;9.43;58.31;92191.25;5025241;28;20309;-50
2023/02/26 05:14:41;;;;;;;;;;;;;;;9.53;57.82;92186.53;5024496;28;19925;-49
2023/02/26 05:17:07;;;;;;;;;;;;;;;9.33;58.73;92191.19;5022384;28;19929;-48
2023/02/26 05:19:33;;;;;;;;;;;;;;;9.26;58.83;92196.78;5021399;28;19961;-50
2023/02/26 05:21:58;;;;;;;;;;;;;;;9.57;56.87;92193.06;5022632;28;19971;-49
2023/02/26 05:24:23;;;;;;;;;;;;;;;9.69;55.93;92191.25;5019467;28;19924;-49
2023/02/26 05:26:48;;;;;;;;;;;;;;;9.92;55.23;92185.38;5024424;28;20553;-49
2023/02/26 05:29:14;;;;;;;;;;;;;;;9.85;55.22;92200.72;5021902;28;19921;-50
2023/02/26 05:31:39;;;;;;;;;;;;;;;9.94;55.29;92189.00;5021264;28;19921;-50
2023/02/26 05:34:04;;;;;;;;;;;;;;;9.99;54.78;92195.56;5017537;28;19937;-51
2023/02/26 05:36:30;;;;;;;;;;;;;;;9.99;54.80;92197.59;5025768;28;20325;-50
2023/02/26 05:38:55;;;;;;;;;;;;;;;9.85;55.20;92209.00;5018968;28;19956;-50
2023/02/26 05:41:20;;;;;;;;;;;;;;;10.03;54.43;92217.91;5021270;28;19978;-51
2023/02/26 05:43:45;;;;;;;;;;;;;;;10.07;54.55;92212.72;5020118;28;19928;-53
2023/02/26 05:46:11;;;;;;;;;;;;;;;10.14;54.33;92214.66;5024643;28;19936;-54
2023/02/26 05:48:36;;;;;;;;;;;;;;;10.31;53.39;92225.59;5023125;28;20548;-51
2023/02/26 05:51:01;;;;;;;;;;;;;;;10.09;53.76;92223.19;5025266;28;19988;-50
2023/02/26 05:53:27;;;;;;;;;;;;;;;10.40;52.76;92213.13;5024810;28;19921;-52
2023/02/26 05:55:52;;;;;;;;;;;;;;;10.43;52.35;92204.44;5023080;28;19920;-51
2023/02/26 05:58:17;;;;;;;;;;;;;;;10.37;52.37;92214.28;5024935;28;20684;-50
2023/02/26 06:00:43;;;;;;;;;;;;;;;10.45;52.28;92212.13;5027240;28;20477;-49
2023/02/26 06:03:08;;;;;;;;;;;;;;;10.50;52.25;92216.66;5021618;28;19917;-50
2023/02/26 06:05:35;;;;;;;;;;;;;;;10.58;51.82;92209.69;5022379;28;20419;-50
2023/02/26 06:08:00;;;;;;;;;;;;;;;10.78;51.09;92209.72;5025410;28;19925;-50
2023/02/26 06:10:25;;;;;;;;;;;;;;;10.74;51.22;92218.44;5027914;28;19944;-50
2023/02/26 06:12:50;;;;;;;;;;;;;;;10.75;51.14;92206.06;5028486;28;19978;-51
2023/02/26 06:15:16;;;;;;;;;;;;;;;10.78;50.74;92199.41;5019276;28;19921;-51
2023/02/26 06:17:41;;;;;;;;;;;;;;;10.81;50.18;92211.28;5027621;28;20014;-51
2023/02/26 06:20:07;;;;;;;;;;;;;;;10.81;50.16;92211.28;5028169;28;19921;-51
2023/02/26 06:22:32;;;;;;;;;;;;;;;10.83;49.96;92206.66;5027659;28;20401;-49
2023/02/26 06:24:57;;;;;;;;;;;;;;;10.90;49.37;92205.78;5024224;28;19925;-50
2023/02/26 06:27:23;;;;;;;;;;;;;;;10.85;49.76;92203.34;5022393;28;19926;-51
2023/02/26 06:29:48;;;;;;;;;;;;;;;10.94;49.25;92211.59;5024671;28;20424;-52
2023/02/26 06:32:13;;;;;;;;;;;;;;;10.90;49.26;92213.34;5025082;28;19921;-52
2023/02/26 06:34:39;;;;;;;;;;;;;;;10.95;49.33;92224.13;5026927;28;19925;-49
2023/02/26 06:37:04;;;;;;;;;;;;;;;11.07;48.86;92219.47;5028055;28;19931;-50
2023/02/26 06:39:29;;;;;;;;;;;;;;;11.08;48.85;92207.13;5025922;28;19967;-49
2023/02/26 06:41:54;;;;;;;;;;;;;;;11.11;48.89;92203.16;5025287;28;19943;-49
2023/02/26 06:44:20;;;;;;;;;;;;;;;11.10;49.05;92209.28;5026743;28;19917;-51
2023/02/26 06:46:45;;;;;;;;;;;;;;;11.43;47.99;92205.47;5024545;28;20011;-52
2023/02/26 06:49:10;;;;;;;;;;;;;;;11.63;47.12;92210.97;5024649;28;19926;-50
2023/02/26 06:51:36;;;;;;;;;;;;;;;11.80;46.77;92191.47;5023903;28;19932;-50
2023/02/26 06:54:01;;;;;;;;;;;;;;;12.05;46.23;92194.56;5024806;28;19978;-51
2023/02/26 06:56:26;;;;;;;;;;;;;;;12.51;45.19;92205.28;5024206;28;19917;-53
2023/02/26 06:58:52;;;;;;;;;;;;;;;12.74;44.02;92192.31;5023804;28;20360;-49
2023/02/26 07:01:17;;;;;;;;;;;;;;;12.72;43.90;92192.16;5020541;28;19975;-51
2023/02/26 07:03:42;;;;;;;;;;;;;;;12.84;43.48;92189.47;5023234;28;20003;-52
2023/02/26 07:06:08;;;;;;;;;;;;;;;12.56;43.31;92190.38;5022822;28;19921;-50
2023/02/26 07:08:34;;;;;;;;;;;;;;;12.77;43.64;92198.69;5020677;28;20054;-53
2023/02/26 07:10:59;;;;;;;;;;;;;;;13.10;42.40;92202.28;5018889;28;20318;-54
2023/02/26 07:13:25;;;;;;;;;;;;;;;13.30;41.30;92195.25;5019365;28;19967;-53
2023/02/26 07:15:50;;;;;;;;;;;;;;;13.47;40.95;92189.41;5024119;28;20387;-54
2023/02/26 07:18:16;;;;;;;;;;;;;;;13.97;39.76;92177.94;5025156;28;19940;-50
2023/02/26 07:20:41;;;;;;;;;;;;;;;14.16;39.44;92188.09;5024601;28;19917;-50
2023/02/26 07:23:06;;;;;;;;;;;;;;;14.21;38.75;92175.91;5027482;28;19917;-50
2023/02/26 07:25:32;;;;;;;;;;;;;;;14.39;38.36;92161.09;5027117;28;20414;-51
2023/02/26 07:27:58;;;;;;;;;;;;;;;14.66;37.75;92177.22;5024705;28;19929;-50
2023/02/26 07:30:24;;;;;;;;;;;;;;;14.63;38.18;92172.16;5026928;28;19935;-49
2023/02/26 07:32:49;;;;;;;;;;;;;;;14.85;37.34;92165.13;5023917;28;20008;-52
2023/02/26 07:35:14;;;;;;;;;;;;;;;15.12;36.78;92160.47;5024202;28;20101;-50
2023/02/26 07:37:41;;;;;;;;;;;;;;;15.08;36.24;92170.63;5022143;28;20222;-51
2023/02/26 07:40:07;;;;;;;;;;;;;;;14.95;36.71;92168.47;5025670;28;19920;-50
2023/02/26 07:42:33;;;;;;;;;;;;;;;14.66;36.64;92165.41;5024959;28;20527;-49
2023/02/26 07:44:58;;;;;;;;;;;;;;;14.56;37.02;92156.47;5026533;28;19971;-50
2023/02/26 07:47:24;;;;;;;;;;;;;;;14.90;36.82;92167.53;5024384;28;19939;-50
2023/02/26 07:49:49;;;;;;;;;;;;;;;14.97;36.57;92160.97;5021133;28;20321;-51
2023/02/26 07:52:14;;;;;;;;;;;;;;;15.21;35.66;92158.84;5023356;28;19932;-50
2023/02/26 07:54:40;;;;;;;;;;;;;;;15.19;35.35;92167.81;5019798;28;19932;-53
2023/02/26 07:57:05;;;;;;;;;;;;;;;15.23;35.57;92155.44;5019834;28;20007;-52
2023/02/26 07:59:30;;;;;;;;;;;;;;;15.65;35.21;92152.28;5021256;28;19985;-52
2023/02/26 08:01:55;;;;;;;;;;;;;;;15.88;35.10;92152.13;5021393;28;19953;-52
2023/02/26 08:04:21;;;;;;;;;;;;;;;16.24;34.33;92195.81;5024719;28;19925;-50
2023/02/26 08:06:47;;;;;;;;;;;;;;;16.45;34.22;92162.13;5021419;28;19917;-49
2023/02/26 08:09:12;;;;;;;;;;;;;;;16.35;34.58;92160.91;5018877;28;20297;-50
2023/02/26 08:11:39;;;;;;;;;;;;;;;16.71;33.79;92181.56;5020160;28;19925;-49
2023/02/26 08:14:05;;;;;;;;;;;;;;;16.64;34.26;92184.06;5022831;28;19921;-51
2023/02/26 08:16:31;;;;;;;;;;;;;;;16.55;34.41;92184.97;5022484;28;19978;-53
2023/02/26 08:18:56;;;;;;;;;;;;;;;17.42;33.17;92189.31;5022118;28;20395;-50
2023/02/26 08:21:22;;;;;;;;;;;;;;;17.18;33.16;92182.56;5019573;28;19920;-51
2023/02/26 08:23:47;;;;;;;;;;;;;;;17.40;33.13;92192.03;5021896;28;19921;-50
2023/02/26 08:26:13;;;;;;;;;;;;;;;17.55;32.88;92193.44;5017238;28;19964;-50
2023/02/26 08:28:38;;;;;;;;;;;;;;;17.50;33.03;92194.59;5015274;28;20390;-50
2023/02/26 08:31:04;;;;;;;;;;;;;;;18.12;32.67;92181.53;5017938;28;19917;-52
2023/02/26 08:33:29;;;;;;;;;;;;;;;18.32;32.24;92195.00;5014179;28;20680;-50
2023/02/26 08:35:57;;;;;;;;;;;;;;;18.37;31.37;92191.72;5013389;28;20502;-51
2023/02/26 08:38:23;;;;;;;;;;;;;;;17.94;32.21;92179.97;5020735;28;19972;-53
2023/02/26 08:40:48;;;;;;;;;;;;;;;18.08;32.24;92186.91;5016449;28;20432;-51
2023/02/26 08:43:14;;;;;;;;;;;;;;;18.75;30.94;92181.56;5019297;28;20393;-50
2023/02/26 08:45:39;;;;;;;;;;;;;;;18.80;30.71;92181.09;5013809;28;20385;-51
2023/02/26 08:48:04;;;;;;;;;;;;;;;18.50;31.22;92188.16;5016411;28;19921;-51
2023/02/26 08:50:29;;;;;;;;;;;;;;;18.03;32.10;92188.09;5020041;28;19917;-51
2023/02/26 08:52:55;;;;;;;;;;;;;;;18.62;31.10;92180.34;5015378;28;19925;-51
2023/02/26 08:55:20;;;;;;;;;;;;;;;18.53;31.36;92194.56;5022651;28;19925;-50
2023/02/26 08:57:46;;;;;;;;;;;;;;;18.41;31.12;92191.22;5020589;28;19917;-52
2023/02/26 09:00:15;;;;;;;;;;;;;;;17.75;31.89;92186.78;5015904;28;20572;-51
2023/02/26 09:02:40;;;;;;;;;;;;;;;17.65;32.38;92191.84;5016654;28;19921;-54
2023/02/26 09:05:07;;;;;;;;;;;;;;;17.62;32.00;92195.91;5020112;28;20416;-50
2023/02/26 09:07:32;;;;;;;;;;;;;;;17.66;32.25;92198.91;5016063;28;20024;-50
2023/02/26 09:09:57;;;;;;;;;;;;;;;17.60;31.69;92198.63;5021477;28;19924;-51
2023/02/26 09:12:22;;;;;;;;;;;;;;;17.62;31.68;92186.81;5019716;28;20196;-50
2023/02/26 09:14:48;;;;;;;;;;;;;;;17.26;31.83;92189.25;5018627;28;20305;-50
2023/02/26 09:17:13;;;;;;;;;;;;;;;17.62;31.50;92186.81;5013247;28;19926;-51
2023/02/26 09:19:38;;;;;;;;;;;;;;;17.77;30.88;92186.16;5016398;28;19921;-51
2023/02/26 09:22:04;;;;;;;;;;;;;;;18.54;30.32;92182.75;5015914;28;20008;-51
2023/02/26 09:24:29;;;;;;;;;;;;;;;18.89;29.52;92182.91;5015718;28;19917;-50
2023/02/26 09:26:54;;;;;;;;;;;;;;;19.20;29.17;92182.13;5015172;28;19925;-51
2023/02/26 09:29:20;;;;;;;;;;;;;;;20.40;27.83;92180.66;5019641;28;19932;-50
2023/02/26 09:31:45;;;;;;;;;;;;;;;20.55;26.59;92184.75;5014942;28;19917;-49
2023/02/26 09:34:12;;;;;;;;;;;;;;;20.55;26.88;92181.22;5023278;28;19928;-50
2023/02/26 09:36:37;;;;;;;;;;;;;;;21.04;26.27;92159.16;5023233;28;20786;-50
2023/02/26 09:39:03;;;;;;;;;;;;;;;21.26;25.82;92176.78;5019177;28;19921;-51
2023/02/26 09:41:49;;;;;;;;;;;;;;;20.44;27.31;92170.97;5016696;28;19980;-52
2023/02/26 09:44:20;;;;;;;;;;;;;;;21.07;25.89;92186.66;5017315;28;19925;-49
2023/02/26 09:46:45;;;;;;;;;;;;;;;21.41;25.63;92164.66;5021548;28;19971;-50
2023/02/26 09:49:15;;;;;;;;;;;;;;;22.89;23.57;92164.38;5017974;28;20008;-55
2023/02/26 09:51:40;;;;;;;;;;;;;;;22.75;23.00;92153.44;5023413;28;19928;-53
2023/02/26 09:54:16;;;;;;;;;;;;;;;21.70;24.00;92157.91;5022290;28;19952;-55
2023/02/26 09:56:41;;;;;;;;;;;;;;;21.38;24.93;92163.16;5021081;28;19961;-54
2023/02/26 09:59:08;;;;;;;;;;;;;;;21.85;24.39;92154.19;5017079;28;19960;-54
2023/02/26 10:01:33;;;;;;;;;;;;;;;21.93;25.54;92145.28;5018472;28;19921;-52
2023/02/26 10:04:02;;;;;;;;;;;;;;;21.84;24.52;92139.41;5018904;28;19940;-53
2023/02/26 10:06:27;;;;;;;;;;;;;;;21.20;24.59;92151.31;5016938;28;20446;-54
2023/02/26 10:08:56;;;;;;;;;;;;;;;21.36;24.51;92146.22;5017919;28;19940;-53
2023/02/26 10:11:39;;;;;;;;;;;;;;;20.36;24.56;92143.34;5021993;28;19955;-53
2023/02/26 10:14:06;;;;;;;;;;;;;;;19.96;24.83;92139.00;5024170;28;19921;-52
2023/02/26 10:16:32;;;;;;;;;;;;;;;20.81;23.92;92137.97;5022539;28;19921;-51
2023/02/26 10:19:00;;;;;;;;;;;;;;;21.06;23.32;92139.59;5021927;28;19913;-52
2023/02/26 10:21:45;;;;;;;;;;;;;;;21.96;23.40;92136.25;5014281;28;20317;-53
2023/02/26 10:24:17;;;;;;;;;;;;;;;23.12;22.11;92135.44;5018284;28;19944;-54
2023/02/26 10:26:49;;;;;;;;;;;;;;;23.46;21.43;92124.38;5010693;28;19917;-50
2023/02/26 10:29:23;;;;;;;;;;;;;;;23.02;21.48;92135.19;5018008;28;20001;-53
2023/02/26 10:32:00;;;;;;;;;;;;;;;20.92;23.59;92122.25;5018834;28;20002;-51
2023/02/26 10:34:26;;;;;;;;;;;;;;;20.34;24.31;92121.56;5024595;28;20020;-52
2023/02/26 10:36:57;;;;;;;;;;;;;;;19.84;25.60;92122.44;5021750;28;19952;-53
2023/02/26 10:39:43;;;;;;;;;;;;;;;19.32;25.13;92121.03;5028278;28;19971;-54
2023/02/26 10:42:12;;;;;;;;;;;;;;;18.99;26.24;92129.47;5024891;28;20004;-53
2023/02/26 10:44:50;;;;;;;;;;;;;;;18.65;25.88;92120.34;5017079;28;20016;-52
2023/02/26 10:47:18;;;;;;;;;;;;;;;18.64;26.14;92118.19;5027933;28;19913;-54
2023/02/26 10:49:51;;;;;;;;;;;;;;;18.44;26.99;92123.63;5029580;28;19921;-54
2023/02/26 10:52:17;;;;;;;;;;;;;;;18.16;27.40;92120.28;5018276;28;20464;-53
2023/02/26 10:54:48;;;;;;;;;;;;;;;18.14;27.81;92109.00;5024548;28;20440;-51
2023/02/26 10:57:16;;;;;;;;;;;;;;;18.07;28.80;92126.84;5027981;28;19964;-50
2023/02/26 10:59:41;;;;;;;;;;;;;;;18.01;27.66;92129.34;5023010;28;20016;-50
2023/02/26 11:02:11;;;;;;;;;;;;;;;17.81;28.47;92134.00;5027718;28;20012;-51
2023/02/26 11:04:37;;;;;;;;;;;;;;;17.71;28.83;92119.59;5028517;28;19956;-52
2023/02/26 11:07:03;;;;;;;;;;;;;;;17.81;28.79;92127.69;5022213;28;20033;-49
2023/02/26 11:09:41;;;;;;;;;;;;;;;17.92;28.31;92118.44;5026918;28;19959;-48
2023/02/26 11:12:06;;;;;;;;;;;;;;;17.94;28.85;92118.53;5020641;28;19922;-52
2023/02/26 11:14:32;;;;;;;;;;;;;;;17.98;28.73;92124.28;5026304;28;20645;-51
2023/02/26 11:16:58;;;;;;;;;;;;;;;17.84;29.36;92113.22;5024618;28;20023;-49
2023/02/26 11:19:30;;;;;;;;;;;;;;;17.76;29.44;92117.72;5022900;28;19921;-50
2023/02/26 11:21:56;;;;;;;;;;;;;;;18.06;28.67;92119.78;5022219;28;19943;-50
2023/02/26 11:24:33;;;;;;;;;;;;;;;17.90;29.50;92113.50;5024333;28;20408;-50
2023/02/26 11:27:02;;;;;;;;;;;;;;;17.98;29.45;92110.34;5022244;28;20416;-50
2023/02/26 11:29:28;;;;;;;;;;;;;;;18.00;29.10;92118.81;5021389;28;19953;-50
2023/02/26 11:32:00;;;;;;;;;;;;;;;17.89;29.50;92114.81;5018482;28;20007;-50
2023/02/26 11:34:25;;;;;;;;;;;;;;;18.06;29.39;92113.50;5014410;28;19925;-51
2023/02/26 11:36:52;;;;;;;;;;;;;;;17.80;30.07;92109.53;5020889;28;19975;-50
2023/02/26 11:39:22;;;;;;;;;;;;;;;17.82;30.16;92118.69;5019944;28;19963;-49
2023/02/26 11:41:48;;;;;;;;;;;;;;;17.85;29.69;92100.69;5019791;28;19921;-49
2023/02/26 11:44:13;;;;;;;;;;;;;;;17.82;29.80;92099.13;5023203;28;19967;-50
2023/02/26 11:46:43;;;;;;;;;;;;;;;17.51;30.78;92101.91;5024570;28;19921;-49
2023/02/26 11:49:09;;;;;;;;;;;;;;;17.75;30.20;92086.28;5019021;28;20059;-49
2023/02/26 11:51:34;;;;;;;;;;;;;;;17.54;30.22;92105.50;5020104;28;20355;-52
2023/02/26 11:54:02;;;;;;;;;;;;;;;17.43;30.18;92105.00;5014238;28;19932;-51
2023/02/26 11:56:33;;;;;;;;;;;;;;;17.37;30.45;92117.94;5014839;28;20700;-50
2023/02/26 11:59:07;;;;;;;;;;;;;;;17.30;31.89;92113.44;5015408;28;19917;-49
2023/02/26 12:01:34;;;;;;;;;;;;;;;17.26;31.58;92121.59;5018838;28;19925;-50
2023/02/26 12:04:00;;;;;;;;;;;;;;;17.43;31.10;92112.66;5016541;28;19917;-51
2023/02/26 12:06:25;;;;;;;;;;;;;;;17.36;30.66;92117.22;5014636;28;20440;-51
2023/02/26 12:08:52;;;;;;;;;;;;;;;17.30;31.19;92111.34;5026534;28;20467;-49
2023/02/26 12:11:36;;;;;;;;;;;;;;;17.22;31.34;92113.03;5017692;28;19952;-50
2023/02/26 12:14:04;;;;;;;;;;;;;;;17.13;31.49;92106.34;5022988;28;20380;-50
2023/02/26 12:16:39;;;;;;;;;;;;;;;17.40;31.22;92109.03;5015802;28;19996;-49
2023/02/26 12:19:06;;;;;;;;;;;;;;;17.65;30.11;92102.53;5017838;28;20405;-50
2023/02/26 12:21:50;;;;;;;;;;;;;;;17.72;29.95;92104.28;5017982;28;19972;-49
2023/02/26 12:24:51;;;;;;;;;;;;;;;18.12;29.32;92108.91;5017988;28;20016;-50
2023/02/26 12:27:35;;;;;;;;;;;;;;;18.47;28.17;92113.25;4985392;28;19924;-50
2023/02/26 12:30:22;;;;;;;;;;;;;;;18.42;27.86;92123.50;5022357;28;19931;-49
2023/02/26 12:32:50;;;;;;;;;;;;;;;18.38;28.70;92119.81;5022159;28;19979;-49
2023/02/26 12:35:15;;;;;;;;;;;;;;;18.15;28.37;92107.63;5020712;28;20408;-49
2023/02/26 12:37:41;;;;;;;;;;;;;;;17.75;29.26;92119.78;5014221;28;19927;-48
2023/02/26 12:40:29;;;;;;;;;;;;;;;17.78;29.02;92124.09;5017675;28;19921;-49
2023/02/26 12:43:00;;;;;;;;;;;;;;;17.89;28.99;92114.09;5011483;28;19932;-49
2023/02/26 12:45:41;;;;;;;;;;;;;;;17.92;29.43;92113.59;5017831;28;19951;-50
2023/02/26 12:48:26;;;;;;;;;;;;;;;18.08;29.02;92135.94;5025835;28;19920;-49
2023/02/26 12:50:52;;;;;;;;;;;;;;;17.94;29.35;92124.84;5014452;28;20425;-52